Latest Weather Observations for Willis Island

IDQ60801

Issued at 12:02 pm EST Thursday 11 February 2016 (issued every 30 minutes, with the page automatically refreshed every 10 minutes)

About weather observations | Map of weather stations | Latest weather observations for QLD | Other Formats
Station Details ID: 200283 Name: WILLIS ISLAND Lat: -16.29 Lon: 149.97 Height: 9.29 m
Data from the previous 72 hours. | See also: Recent months at Willis Island
Date/Time
EST
Temp
°C
App
Temp
°C
Dew
Point
Rel
Hum
%
Delta-T
°C
Wind Press
QNH
hPa
Press
MSL
hPa
Rain
since 9 am
mm
Dir
 
Spd
km/h
Gust
km/h
Spd
kts
Gust
kts
11/12:00pm 31.0 31.3 23.0 62 5.5 SSE 26 30 14 16 1006.5 1006.4 0.0
11/11:30am 30.8 32.0 23.9 66 4.8 SSE 24 30 13 16 1006.9 1006.8 0.0
11/11:00am 30.5 30.9 23.1 64 5.1 SSE 26 30 14 16 1007.1 1007.0 0.0
11/10:30am 30.0 30.8 23.8 69 4.3 SSE 26 32 14 17 1007.3 1007.2 0.0
11/10:00am 30.3 31.0 23.7 68 4.6 SSE 26 30 14 16 1007.4 1007.3 0.0
11/09:30am 30.3 31.1 23.8 68 4.5 SE 26 32 14 17 1007.6 1007.5 0.0
11/09:00am 29.6 29.8 23.5 69 4.2 SSE 28 32 15 17 1007.8 1007.7 6.2
11/08:30am 29.4 29.9 23.3 69 4.2 SSE 26 32 14 17 1007.7 1007.6 6.2
11/08:00am 28.8 28.4 23.1 71 3.9 SSE 30 35 16 19 1007.6 1007.5 6.2
11/07:30am 29.0 28.7 23.8 73 3.6 SE 32 35 17 19 1007.1 1007.0 6.2
11/07:00am 27.5 28.2 24.3 83 2.2 SE 28 33 15 18 1006.8 1006.7 6.2
11/06:30am 27.0 26.4 24.4 86 1.8 SSE 35 41 19 22 1006.3 1006.2 6.2
11/06:00am 28.0 28.5 23.3 75 3.2 SSE 26 30 14 16 1005.9 1005.8 6.2
11/05:30am 27.9 27.9 23.1 75 3.3 SSE 28 33 15 18 1005.6 1005.5 6.2
11/05:00am 28.0 27.7 23.2 75 3.3 SSE 30 35 16 19 1005.3 1005.2 6.2
11/04:30am 28.1 28.6 23.9 78 2.9 SSE 28 32 15 17 1005.0 1004.9 6.2
11/04:00am 27.8 27.4 23.7 78 2.8 SSE 32 37 17 20 1004.5 1004.4 6.2
11/03:30am 27.8 28.2 23.7 78 2.8 SSE 28 35 15 19 1004.6 1004.5 6.2
11/03:00am 27.9 27.7 24.0 79 2.7 SSE 32 37 17 20 1004.6 1004.5 6.2
11/02:30am 27.8 27.9 24.0 80 2.6 SSE 30 35 16 19 1004.6 1004.5 6.2
11/02:00am 27.9 27.6 24.2 80 2.6 SSE 33 39 18 21 1004.8 1004.7 6.2
11/01:30am 28.0 27.4 24.3 80 2.6 SSE 35 41 19 22 1005.1 1005.0 6.2
11/01:00am 28.1 27.2 23.9 78 2.9 SSE 35 39 19 21 1005.3 1005.2 6.2
11/12:30am 28.0 27.2 24.0 79 2.8 SSE 35 41 19 22 1005.6 1005.5 6.2
11/12:00am 28.1 27.8 23.9 78 2.9 SSE 32 39 17 21 1006.0 1005.9 6.2
 
Date/Time
EST
Temp
°C
App
Temp
°C
Dew
Point
Rel
Hum
%
Delta-T
°C
Wind Press
QNH
hPa
Press
MSL
hPa
Rain
since 9 am
mm
Dir
 
Spd
km/h
Gust
km/h
Spd
kts
Gust
kts
10/11:30pm 28.2 27.0 23.9 77 3.0 SSE 37 41 20 22 1006.4 1006.3 6.2
10/11:00pm 28.5 27.5 23.6 75 3.4 SSE 35 43 19 23 1006.7 1006.6 6.2
10/10:30pm 28.5 27.3 23.3 73 3.6 SSE 35 39 19 21 1007.0 1006.9 6.2
10/10:00pm 28.4 27.9 23.9 76 3.1 SSE 33 39 18 21 1007.2 1007.1 6.2
10/09:30pm 28.4 28.4 24.7 80 2.6 SSE 33 41 18 22 1007.2 1007.1 6.2
10/09:00pm 28.1 27.5 25.0 83 2.2 SSE 37 41 20 22 1007.0 1006.9 6.2
10/08:30pm 27.2 25.4 24.2 84 2.1 SE 41 48 22 26 1006.9 1006.8 5.6
10/08:00pm 28.1 27.3 24.7 82 2.4 SSE 37 41 20 22 1006.4 1006.3 5.6
10/07:30pm 27.9 27.8 25.2 85 1.9 SSE 35 41 19 22 1006.4 1006.3 5.4
10/07:00pm 27.2 26.9 24.8 87 1.7 SSE 35 43 19 23 1006.2 1006.1 5.4
10/06:47pm 27.1 26.5 25.5 91 1.1 S 39 46 21 25 1006.1 1006.0 5.2
10/06:30pm 28.4 28.5 24.5 79 2.7 SSE 32 41 17 22 1005.9 1005.8 5.2
10/06:00pm 28.2 27.8 24.0 78 2.9 SSE 33 39 18 21 1005.5 1005.4 5.2
10/05:44pm 28.0 30.7 25.0 84 2.1 SSE 20 35 11 19 1005.4 1005.3 5.2
10/05:30pm 26.8 30.9 25.2 91 1.1 SE 13 17 7 9 1005.3 1005.2 5.2
10/05:00pm 26.0 29.2 24.9 94 0.8 SE 17 26 9 14 1005.0 1004.9 4.8
10/04:45pm 26.0 26.9 24.6 92 1.0 S 28 46 15 25 1005.0 1004.9 3.4
10/04:30pm 26.1 27.6 25.0 94 0.8 SSE 26 32 14 17 1004.8 1004.7 2.2
10/04:00pm 26.3 25.9 25.2 94 0.8 SSE 37 48 20 26 1004.6 1004.5 0.4
10/03:30pm 28.2 27.4 25.2 84 2.1 S 39 44 21 24 1004.2 1004.1 0.2
10/03:00pm 30.2 30.1 24.2 70 4.2 SSE 32 37 17 20 1004.1 1004.0 0.2
10/02:30pm 29.3 29.1 24.1 73 3.6 SSE 32 35 17 19 1004.4 1004.3 0.2
10/02:00pm 29.4 29.2 24.4 74 3.5 SSE 33 39 18 21 1004.6 1004.5 0.2
10/01:30pm 29.2 29.8 24.8 77 3.1 SSE 30 35 16 19 1004.9 1004.8 0.2
10/01:00pm 29.5 30.5 25.4 78 2.9 SSE 30 33 16 18 1005.3 1005.2 0.2
10/12:30pm 27.5 27.6 25.4 88 1.5 SSE 35 43 19 23 1005.5 1005.4 0.2
10/12:00pm 29.3 29.7 25.9 82 2.4 S 35 39 19 21 1005.6 1005.5 0.0
10/11:30am 28.0 29.3 25.9 88 1.5 SSE 30 37 16 20 1006.0 1005.9 0.0
10/11:00am 30.2 30.7 24.6 72 3.9 SSE 30 35 16 19 1006.0 1005.9 0.0
10/10:30am 28.6 31.0 25.8 85 2.0 S 24 32 13 17 1006.3 1006.2 0.0
10/10:00am 29.3 29.4 25.5 80 2.7 SSE 35 41 19 22 1006.4 1006.3 0.0
10/09:30am 29.5 30.2 25.5 79 2.8 SSE 32 37 17 20 1006.3 1006.2 0.0
10/09:00am 29.8 31.1 25.3 77 3.2 SSE 28 33 15 18 1006.4 1006.3 2.8
10/08:30am 29.5 30.6 24.9 76 3.2 SSE 28 32 15 17 1006.5 1006.4 2.8
10/08:00am 29.6 30.2 24.8 75 3.4 SSE 30 33 16 18 1006.2 1006.1 2.8
10/07:30am 29.3 29.2 24.3 74 3.5 SSE 32 35 17 19 1005.8 1005.7 2.8
10/07:00am 28.9 29.0 24.5 77 3.1 SSE 32 37 17 20 1005.5 1005.4 2.8
10/06:30am 28.4 28.3 24.5 79 2.7 SSE 33 39 18 21 1004.7 1004.6 2.8
10/06:00am 28.1 27.8 24.8 82 2.3 SSE 35 43 19 23 1004.6 1004.5 2.8
10/05:30am 28.0 28.4 25.0 84 2.1 SSE 32 37 17 20 1004.4 1004.3 2.8
10/05:00am 27.9 28.3 25.3 86 1.8 SSE 33 43 18 23 1004.2 1004.1 2.6
10/04:30am 27.7 27.6 25.1 86 1.8 SE 35 43 19 23 1004.0 1003.9 2.6
10/04:00am 28.2 27.6 24.9 82 2.3 SSE 37 41 20 22 1003.7 1003.6 2.6
10/03:30am 28.2 27.9 24.8 82 2.4 SE 35 43 19 23 1003.7 1003.6 2.6
10/03:00am 28.2 28.3 24.9 82 2.3 SE 33 41 18 22 1003.9 1003.8 2.6
10/02:30am 28.3 27.7 24.9 82 2.4 SE 37 41 20 22 1004.2 1004.1 2.6
10/02:00am 28.3 27.9 25.2 83 2.2 SE 37 44 20 24 1004.4 1004.3 2.6
10/01:30am 28.2 26.8 24.9 82 2.3 SE 41 48 22 26 1004.5 1004.4 2.6
10/01:00am 28.0 26.4 24.6 82 2.4 SE 41 52 22 28 1004.5 1004.4 2.6
10/12:30am 26.3 23.8 24.6 90 1.2 SE 46 65 25 35 1005.1 1005.0 2.2
10/12:22am 27.7 27.6 25.7 89 1.4 SE 37 57 20 31 1005.2 1005.1 0.8
10/12:00am 27.6 25.9 25.0 86 1.8 SE 43 56 23 30 1005.4 1005.3 0.6
 
Date/Time
EST
Temp
°C
App
Temp
°C
Dew
Point
Rel
Hum
%
Delta-T
°C
Wind Press
QNH
hPa
Press
MSL
hPa
Rain
since 9 am
mm
Dir
 
Spd
km/h
Gust
km/h
Spd
kts
Gust
kts
09/11:34pm 28.4 26.5 24.7 80 2.6 SE 43 63 23 34 1005.8 1005.7 0.6
09/11:30pm 28.8 27.7 25.4 82 2.4 SE 41 48 22 26 1005.8 1005.7 0.6
09/11:00pm 28.7 26.5 25.1 81 2.5 SSE 46 54 25 29 1006.2 1006.1 0.6
09/10:30pm 28.4 26.9 25.7 85 1.9 SSE 44 54 24 29 1006.4 1006.3 0.6
09/10:03pm 28.2 27.1 25.4 85 2.0 SE 41 59 22 32 1006.4 1006.3 0.6
09/10:00pm 28.4 28.5 26.0 87 1.7 SE 37 46 20 25 1006.4 1006.3 0.6
09/09:30pm 27.9 27.7 26.2 90 1.2 SE 39 50 21 27 1006.4 1006.3 0.4
09/09:00pm 28.6 27.6 25.6 84 2.1 SE 41 46 22 25 1006.1 1006.0 0.4
09/08:30pm 28.4 26.9 25.4 84 2.1 SSE 43 48 23 26 1006.2 1006.1 0.4
09/08:00pm 28.4 26.9 25.6 85 2.0 SSE 44 52 24 28 1006.1 1006.0 0.4
09/07:30pm 28.2 27.2 24.9 82 2.3 SSE 39 46 21 25 1005.8 1005.7 0.4
09/07:00pm 28.3 27.7 25.5 85 2.0 SSE 39 48 21 26 1005.4 1005.3 0.4
09/06:30pm 28.3 27.0 25.6 85 1.9 SE 43 48 23 26 1005.4 1005.3 0.4
09/06:00pm 28.4 27.1 25.7 85 1.9 SSE 43 50 23 27 1005.2 1005.1 0.4
09/05:30pm 28.0 27.4 25.6 87 1.7 SE 39 46 21 25 1005.0 1004.9 0.4
09/05:00pm 29.3 29.0 25.5 80 2.7 SSE 37 43 20 23 1004.8 1004.7 0.0
09/04:30pm 29.6 30.1 25.5 78 2.9 SSE 33 39 18 21 1004.4 1004.3 0.0
09/04:00pm 29.6 29.3 25.5 78 2.9 SSE 37 43 20 23 1004.1 1004.0 0.0
09/03:30pm 30.4 30.8 25.0 73 3.8 SE 32 37 17 20 1004.0 1003.9 0.0
09/03:00pm 30.5 30.9 25.0 72 3.9 SSE 32 39 17 21 1004.1 1004.0 0.0
09/02:30pm 30.8 31.2 25.1 71 4.0 SE 32 35 17 19 1004.3 1004.2 0.0
09/02:00pm 31.6 32.2 25.6 70 4.3 SSE 33 39 18 21 1004.5 1004.4 0.0
09/01:30pm 32.1 32.9 25.6 68 4.6 SSE 32 39 17 21 1004.5 1004.4 0.0
09/01:00pm 30.8 31.2 25.0 71 4.1 SSE 32 37 17 20 1004.9 1004.8 0.0
09/12:30pm 31.6 32.5 25.2 69 4.5 SSE 30 35 16 19 1005.4 1005.3 0.0
09/12:00pm 32.4 34.0 25.7 68 4.8 SE 28 32 15 17 1005.8 1005.7 0.0
09/11:30am 32.1 34.6 25.9 70 4.4 SE 24 28 13 15 1005.9 1005.8 0.0
09/11:00am 31.7 33.5 25.5 69 4.4 SE 26 30 14 16 1006.3 1006.2 0.0
09/10:30am 32.2 34.9 25.6 68 4.7 SE 22 26 12 14 1006.6 1006.5 0.0
09/10:00am 31.5 33.7 26.0 72 3.9 ESE 26 30 14 16 1006.6 1006.5 0.0
09/09:30am 31.8 34.1 26.2 72 4.0 SE 26 28 14 15 1006.4 1006.3 0.0
09/09:00am 30.8 33.1 26.2 76 3.3 SE 26 32 14 17 1006.7 1006.6 2.0
09/08:30am 30.6 33.4 26.9 80 2.7 SE 26 30 14 16 1006.4 1006.3 2.0
09/08:00am 30.1 32.3 26.0 78 2.9 SE 26 30 14 16 1006.1 1006.0 2.0
09/07:30am 29.7 31.3 26.3 82 2.4 SE 30 37 16 20 1005.7 1005.6 2.0
09/07:00am 29.5 31.3 26.1 82 2.4 SE 28 32 15 17 1005.3 1005.2 2.0
09/06:30am 29.2 31.6 26.4 85 2.0 SE 26 32 14 17 1005.2 1005.1 2.0
09/06:00am 28.8 31.4 26.6 88 1.6 ESE 26 30 14 16 1005.0 1004.9 2.0
09/05:30am 28.3 29.6 25.9 87 1.7 ESE 30 35 16 19 1004.6 1004.5 2.0
09/05:00am 28.8 32.8 26.7 88 1.5 ESE 19 20 10 11 1004.2 1004.1 2.0
09/04:30am 28.7 33.1 26.2 86 1.8 ESE 15 17 8 9 1004.1 1004.0 2.0
09/04:00am 28.6 33.0 26.2 87 1.7 ESE 15 19 8 10 1004.0 1003.9 2.0
09/03:30am 28.5 33.3 26.3 88 1.6 SE 13 15 7 8 1003.9 1003.8 2.0
09/03:00am 28.4 34.5 26.2 88 1.6 ESE 6 7 3 4 1004.0 1003.9 2.0
09/02:30am 28.6 34.3 26.4 88 1.6 SSE 9 11 5 6 1003.9 1003.8 2.0
09/02:00am 28.8 34.8 26.4 87 1.7 SSE 7 11 4 6 1004.3 1004.2 2.0
09/01:30am 28.8 34.7 26.7 88 1.5 S 9 11 5 6 1004.6 1004.5 2.0
09/01:00am 29.0 34.2 26.9 88 1.5 SSW 13 17 7 9 1005.1 1005.0 2.0
09/12:30am 29.1 33.0 26.6 86 1.8 WSW 19 20 10 11 1005.3 1005.2 2.0
09/12:00am 29.0 33.3 26.6 87 1.7 WSW 17 19 9 10 1005.6 1005.5 2.0
 
Date/Time
EST
Temp
°C
App
Temp
°C
Dew
Point
Rel
Hum
%
Delta-T
°C
Wind Press
QNH
hPa
Press
MSL
hPa
Rain
since 9 am
mm
Dir
 
Spd
km/h
Gust
km/h
Spd
kts
Gust
kts
08/11:30pm 28.9 32.7 26.8 88 1.5 WSW 20 22 11 12 1006.1 1006.0 2.0
08/11:00pm 29.3 33.1 26.7 86 1.9 SW 20 22 11 12 1006.4 1006.3 2.0
08/10:30pm 29.2 33.5 26.7 86 1.8 WSW 17 20 9 11 1006.7 1006.6 2.0
08/10:00pm 29.6 34.2 26.5 83 2.2 WSW 15 19 8 10 1006.9 1006.8 1.8
08/09:30pm 29.5 34.2 26.7 85 2.0 W 15 17 8 9 1007.1 1007.0 1.8
08/09:00pm 29.6 33.7 26.4 83 2.3 WSW 17 19 9 10 1007.1 1007.0 1.8
08/08:30pm 29.6 33.4 26.7 84 2.1 WSW 20 24 11 13 1006.8 1006.7 1.8
08/08:00pm 29.7 33.2 26.8 84 2.1 WSW 22 28 12 15 1006.9 1006.8 1.8
08/07:30pm 29.8 33.0 27.0 85 2.0 WSW 24 28 13 15 1006.5 1006.4 1.8
08/07:00pm 29.4 33.1 27.2 88 1.6 WSW 22 28 12 15 1006.2 1006.1 1.8
08/06:30pm 29.3 31.0 26.5 85 2.0 SW 30 35 16 19 1006.0 1005.9 1.8
08/06:00pm 30.0 32.7 26.8 83 2.3 SW 26 28 14 15 1005.9 1005.8 1.8
08/05:30pm 30.1 33.2 26.8 82 2.4 SW 24 28 13 15 1005.9 1005.8 1.8
08/05:00pm 30.6 33.0 26.4 78 3.0 SW 26 30 14 16 1005.6 1005.5 1.8
08/04:30pm 30.2 32.2 26.4 80 2.7 SW 28 33 15 18 1005.3 1005.2 1.8
08/04:00pm 30.8 33.1 26.8 79 2.9 WSW 28 32 15 17 1005.0 1004.9 1.8
08/03:30pm 30.7 33.2 27.0 80 2.7 WSW 28 30 15 16 1005.2 1005.1 1.8
08/03:00pm 30.7 34.3 27.5 83 2.3 WSW 24 30 13 16 1005.6 1005.5 1.8
08/02:30pm 31.0 33.3 27.3 81 2.7 WSW 30 32 16 17 1005.7 1005.6 1.8
08/02:00pm 30.3 32.8 27.1 83 2.3 WSW 28 32 15 17 1006.1 1006.0 1.8
08/01:30pm 29.7 32.9 27.5 88 1.6 WSW 26 32 14 17 1006.4 1006.3 1.8
08/01:00pm 30.9 34.5 27.0 80 2.8 W 22 26 12 14 1006.6 1006.5 1.4
08/12:30pm 31.6 35.0 27.3 78 3.1 WSW 24 28 13 15 1007.0 1006.9 1.4

Other Formats:

Comma delimited format used in spreadsheet applications
http://www.bom.gov.au/fwo/IDQ60801/IDQ60801.94299.axf

JavaScript Object Notation format (JSON) in row-major order
http://www.bom.gov.au/fwo/IDQ60801/IDQ60801.94299.json